LXJ310 KCOU-KOLV
Flight info
| Callsign | LXJ310 |
|---|---|
| Flight time | 0h 46m |
| Altitude | 31000 |
| Route | VIH |
| Aircraft | E55P/M-SBDFGHJ2RWY/LB2 |
Departure
| Time | 2026-05-08 00:21 |
|---|---|
| Airport | Columbia Regional Airport (KCOU) |
Arrival
| Time | 2026-05-08 01:08 |
|---|---|
| Airport | Olive Branch Airport (KOLV) |
| Time | Latitude | Longitude | Altitude | Speed | Heading |
|---|---|---|---|---|---|
| 2026-05-08 00:10 | 38.81947 | -92.21979 | 889 ft | 0 kts | 291° |
| 2026-05-08 00:18 | 38.81947 | -92.21981 | 889 ft | 2 kts | 291° |
| 2026-05-08 00:18 | 38.81990 | -92.21964 | 889 ft | 12 kts | 41° |
| 2026-05-08 00:18 | 38.82011 | -92.21851 | 889 ft | 13 kts | 101° |
| 2026-05-08 00:18 | 38.82031 | -92.21768 | 889 ft | 12 kts | 21° |
| 2026-05-08 00:19 | 38.82130 | -92.21718 | 889 ft | 19 kts | 21° |
| 2026-05-08 00:19 | 38.82247 | -92.21657 | 889 ft | 17 kts | 26° |
| 2026-05-08 00:19 | 38.82324 | -92.21609 | 890 ft | 9 kts | 25° |
| 2026-05-08 00:19 | 38.82383 | -92.21581 | 890 ft | 7 kts | 19° |
| 2026-05-08 00:20 | 38.82422 | -92.21561 | 890 ft | 8 kts | 36° |
| 2026-05-08 00:20 | 38.82425 | -92.21539 | 890 ft | 0 kts | 101° |
| 2026-05-08 00:20 | 38.82420 | -92.21509 | 890 ft | 6 kts | 103° |
| 2026-05-08 00:20 | 38.82395 | -92.21449 | 890 ft | 6 kts | 164° |
| 2026-05-08 00:21 | 38.82352 | -92.21458 | 890 ft | 11 kts | 200° |
| 2026-05-08 00:21 | 38.82030 | -92.21618 | 890 ft | 90 kts | 201° |
| 2026-05-08 00:21 | 38.81315 | -92.21971 | 1093 ft | 124 kts | 200° |
| 2026-05-08 00:21 | 38.80356 | -92.22401 | 1767 ft | 164 kts | 200° |
| 2026-05-08 00:22 | 38.79164 | -92.22885 | 2760 ft | 190 kts | 199° |
| 2026-05-08 00:22 | 38.77783 | -92.22972 | 3802 ft | 213 kts | 174° |
| 2026-05-08 00:22 | 38.76276 | -92.22522 | 4837 ft | 232 kts | 170° |
| 2026-05-08 00:22 | 38.74664 | -92.21992 | 5898 ft | 242 kts | 170° |
| 2026-05-08 00:23 | 38.72964 | -92.21411 | 6830 ft | 264 kts | 170° |
| 2026-05-08 00:23 | 38.71164 | -92.20780 | 7916 ft | 272 kts | 169° |
| 2026-05-08 00:23 | 38.69337 | -92.20140 | 8969 ft | 281 kts | 169° |
| 2026-05-08 00:23 | 38.67417 | -92.19472 | 9983 ft | 291 kts | 169° |
| 2026-05-08 00:24 | 38.65404 | -92.18777 | 10711 ft | 309 kts | 169° |
| 2026-05-08 00:24 | 38.63337 | -92.17893 | 11735 ft | 319 kts | 159° |
| 2026-05-08 00:24 | 38.61348 | -92.16528 | 12697 ft | 330 kts | 153° |
| 2026-05-08 00:24 | 38.59354 | -92.15013 | 13634 ft | 337 kts | 154° |
| 2026-05-08 00:25 | 38.57275 | -92.13565 | 14490 ft | 342 kts | 156° |
| 2026-05-08 00:25 | 38.55149 | -92.12150 | 15355 ft | 347 kts | 157° |
| 2026-05-08 00:25 | 38.53029 | -92.10697 | 16166 ft | 353 kts | 156° |
| 2026-05-08 00:25 | 38.50859 | -92.09184 | 16995 ft | 358 kts | 156° |
| 2026-05-08 00:26 | 38.48656 | -92.07660 | 17814 ft | 362 kts | 157° |
| 2026-05-08 00:26 | 38.46418 | -92.06129 | 18545 ft | 368 kts | 157° |
| 2026-05-08 00:26 | 38.44154 | -92.04576 | 19256 ft | 371 kts | 158° |
| 2026-05-08 00:26 | 38.41873 | -92.03005 | 19957 ft | 374 kts | 158° |
| 2026-05-08 00:27 | 38.39570 | -92.01425 | 20636 ft | 378 kts | 158° |
| 2026-05-08 00:27 | 38.37247 | -91.99831 | 21312 ft | 381 kts | 159° |
| 2026-05-08 00:27 | 38.34936 | -91.98247 | 21950 ft | 384 kts | 159° |
| 2026-05-08 00:27 | 38.32572 | -91.96629 | 22596 ft | 388 kts | 159° |
| 2026-05-08 00:28 | 38.30186 | -91.94997 | 23229 ft | 391 kts | 160° |
| 2026-05-08 00:28 | 38.27782 | -91.93352 | 23792 ft | 394 kts | 160° |
| 2026-05-08 00:28 | 38.25354 | -91.91692 | 24284 ft | 397 kts | 160° |
| 2026-05-08 00:28 | 38.22913 | -91.90026 | 24778 ft | 400 kts | 161° |
| 2026-05-08 00:29 | 38.20453 | -91.88348 | 25269 ft | 403 kts | 161° |
| 2026-05-08 00:29 | 38.17976 | -91.86660 | 25742 ft | 405 kts | 161° |
| 2026-05-08 00:29 | 38.15484 | -91.84962 | 26206 ft | 408 kts | 161° |
| 2026-05-08 00:29 | 38.12972 | -91.83252 | 26664 ft | 411 kts | 162° |
| 2026-05-08 00:30 | 38.10480 | -91.81556 | 27112 ft | 413 kts | 162° |
| 2026-05-08 00:30 | 38.07938 | -91.79828 | 27569 ft | 416 kts | 162° |
| 2026-05-08 00:30 | 38.05380 | -91.78092 | 28007 ft | 418 kts | 162° |
| 2026-05-08 00:30 | 38.02809 | -91.76348 | 28436 ft | 420 kts | 162° |
| 2026-05-08 00:31 | 38.00224 | -91.74595 | 28865 ft | 423 kts | 162° |
| 2026-05-08 00:31 | 37.97626 | -91.72834 | 29281 ft | 425 kts | 163° |
| 2026-05-08 00:31 | 37.95010 | -91.71063 | 29673 ft | 427 kts | 163° |
| 2026-05-08 00:31 | 37.92380 | -91.69285 | 30057 ft | 430 kts | 163° |
| 2026-05-08 00:32 | 37.89748 | -91.67506 | 30383 ft | 431 kts | 163° |
| 2026-05-08 00:32 | 37.87110 | -91.65724 | 30709 ft | 433 kts | 163° |
| 2026-05-08 00:32 | 37.84445 | -91.63926 | 31001 ft | 436 kts | 163° |
| 2026-05-08 00:32 | 37.81733 | -91.62107 | 31019 ft | 446 kts | 163° |
| 2026-05-08 00:33 | 37.76130 | -91.58335 | 31020 ft | 466 kts | 163° |
| 2026-05-08 00:33 | 37.70311 | -91.54418 | 31026 ft | 480 kts | 163° |
| 2026-05-08 00:34 | 37.64395 | -91.50450 | 31032 ft | 489 kts | 162° |
| 2026-05-08 00:34 | 37.58345 | -91.46396 | 31036 ft | 495 kts | 162° |
| 2026-05-08 00:35 | 37.52235 | -91.42311 | 31035 ft | 498 kts | 162° |
| 2026-05-08 00:35 | 37.46119 | -91.38229 | 31034 ft | 497 kts | 162° |
| 2026-05-08 00:36 | 37.40002 | -91.34157 | 31036 ft | 497 kts | 163° |
| 2026-05-08 00:36 | 37.33933 | -91.30122 | 31036 ft | 497 kts | 163° |
| 2026-05-08 00:37 | 37.27827 | -91.26071 | 31039 ft | 496 kts | 163° |
| 2026-05-08 00:38 | 37.18686 | -91.20022 | 31038 ft | 495 kts | 162° |
| 2026-05-08 00:38 | 37.12591 | -91.15997 | 31038 ft | 495 kts | 163° |
| 2026-05-08 00:39 | 37.06533 | -91.12003 | 31031 ft | 495 kts | 163° |
| 2026-05-08 00:39 | 37.00434 | -91.07991 | 31037 ft | 495 kts | 163° |
| 2026-05-08 00:40 | 36.94333 | -91.03983 | 31029 ft | 495 kts | 163° |
| 2026-05-08 00:40 | 36.88231 | -90.99984 | 31027 ft | 495 kts | 163° |
| 2026-05-08 00:41 | 36.82167 | -90.96014 | 31031 ft | 495 kts | 163° |
| 2026-05-08 00:41 | 36.76067 | -90.92032 | 31034 ft | 495 kts | 164° |
| 2026-05-08 00:42 | 36.69958 | -90.88046 | 31046 ft | 496 kts | 163° |
| 2026-05-08 00:42 | 36.63878 | -90.83942 | 31031 ft | 497 kts | 163° |
| 2026-05-08 00:43 | 36.57833 | -90.79894 | 31029 ft | 496 kts | 165° |
| 2026-05-08 00:43 | 36.54755 | -90.78056 | 30996 ft | 483 kts | 169° |
| 2026-05-08 00:43 | 36.51734 | -90.76364 | 30355 ft | 474 kts | 166° |
| 2026-05-08 00:43 | 36.48800 | -90.74627 | 29557 ft | 460 kts | 168° |
| 2026-05-08 00:44 | 36.46881 | -90.73534 | 29015 ft | 459 kts | 167° |
| 2026-05-08 00:44 | 36.44016 | -90.71733 | 28209 ft | 465 kts | 162° |
| 2026-05-08 00:44 | 36.41235 | -90.69661 | 27430 ft | 468 kts | 158° |
| 2026-05-08 00:44 | 36.38465 | -90.67573 | 26672 ft | 463 kts | 160° |
| 2026-05-08 00:45 | 36.35661 | -90.65669 | 25938 ft | 456 kts | 162° |
| 2026-05-08 00:45 | 36.31972 | -90.63212 | 25001 ft | 453 kts | 160° |
| 2026-05-08 00:45 | 36.29243 | -90.61275 | 24304 ft | 451 kts | 158° |
| 2026-05-08 00:45 | 36.26537 | -90.59355 | 23620 ft | 446 kts | 158° |
| 2026-05-08 00:46 | 36.24710 | -90.58096 | 23079 ft | 443 kts | 159° |
| 2026-05-08 00:46 | 36.22058 | -90.56287 | 22300 ft | 439 kts | 158° |
| 2026-05-08 00:46 | 36.19399 | -90.54448 | 21531 ft | 436 kts | 158° |
| 2026-05-08 00:46 | 36.16760 | -90.52609 | 20781 ft | 435 kts | 158° |
| 2026-05-08 00:47 | 36.14123 | -90.50785 | 20052 ft | 433 kts | 157° |
| 2026-05-08 00:47 | 36.11501 | -90.48978 | 19337 ft | 430 kts | 157° |
| 2026-05-08 00:47 | 36.08897 | -90.47181 | 18645 ft | 427 kts | 157° |
| 2026-05-08 00:47 | 36.06322 | -90.45402 | 17898 ft | 419 kts | 156° |
| 2026-05-08 00:48 | 36.03812 | -90.43666 | 17123 ft | 408 kts | 156° |
| 2026-05-08 00:48 | 36.01398 | -90.42006 | 16371 ft | 398 kts | 156° |
| 2026-05-08 00:48 | 35.99010 | -90.40365 | 15644 ft | 389 kts | 156° |
| 2026-05-08 00:48 | 35.96684 | -90.38764 | 15053 ft | 377 kts | 156° |
| 2026-05-08 00:49 | 35.94431 | -90.37214 | 14509 ft | 365 kts | 156° |
| 2026-05-08 00:49 | 35.92240 | -90.35710 | 13970 ft | 356 kts | 156° |
| 2026-05-08 00:49 | 35.90101 | -90.34243 | 13381 ft | 348 kts | 156° |
| 2026-05-08 00:49 | 35.88007 | -90.32808 | 12786 ft | 341 kts | 156° |
| 2026-05-08 00:50 | 35.85955 | -90.31402 | 12227 ft | 334 kts | 156° |
| 2026-05-08 00:50 | 35.83939 | -90.30020 | 11679 ft | 329 kts | 155° |
| 2026-05-08 00:50 | 35.81981 | -90.28679 | 11154 ft | 324 kts | 155° |
| 2026-05-08 00:50 | 35.80020 | -90.27339 | 10615 ft | 320 kts | 155° |
| 2026-05-08 00:51 | 35.78091 | -90.26018 | 10180 ft | 316 kts | 154° |
| 2026-05-08 00:51 | 35.76168 | -90.24705 | 9722 ft | 315 kts | 154° |
| 2026-05-08 00:51 | 35.74254 | -90.23398 | 9232 ft | 314 kts | 154° |
| 2026-05-08 00:51 | 35.72361 | -90.22160 | 9009 ft | 302 kts | 158° |
| 2026-05-08 00:52 | 35.70429 | -90.21042 | 9004 ft | 309 kts | 158° |
| 2026-05-08 00:52 | 35.68491 | -90.19896 | 9006 ft | 309 kts | 157° |
| 2026-05-08 00:52 | 35.66587 | -90.18679 | 8999 ft | 309 kts | 148° |
| 2026-05-08 00:52 | 35.64995 | -90.16952 | 9000 ft | 310 kts | 136° |
| 2026-05-08 00:53 | 35.63512 | -90.15021 | 9004 ft | 311 kts | 134° |
| 2026-05-08 00:53 | 35.62047 | -90.13049 | 9000 ft | 314 kts | 133° |
| 2026-05-08 00:53 | 35.60586 | -90.11065 | 9000 ft | 312 kts | 133° |
| 2026-05-08 00:53 | 35.59139 | -90.09092 | 8999 ft | 311 kts | 133° |
| 2026-05-08 00:54 | 35.57690 | -90.07122 | 8995 ft | 311 kts | 133° |
| 2026-05-08 00:54 | 35.56239 | -90.05148 | 8993 ft | 312 kts | 133° |
| 2026-05-08 00:54 | 35.54784 | -90.03169 | 8991 ft | 312 kts | 133° |
| 2026-05-08 00:54 | 35.53347 | -90.01217 | 8988 ft | 312 kts | 133° |
| 2026-05-08 00:55 | 35.51891 | -89.99236 | 8989 ft | 313 kts | 133° |
| 2026-05-08 00:55 | 35.50434 | -89.97253 | 8987 ft | 313 kts | 133° |
| 2026-05-08 00:55 | 35.48978 | -89.95275 | 8986 ft | 313 kts | 133° |
| 2026-05-08 00:55 | 35.47521 | -89.93293 | 8981 ft | 313 kts | 133° |
| 2026-05-08 00:56 | 35.46065 | -89.91311 | 8983 ft | 313 kts | 133° |
| 2026-05-08 00:56 | 35.44608 | -89.89327 | 8979 ft | 313 kts | 133° |
| 2026-05-08 00:56 | 35.43153 | -89.87346 | 8986 ft | 313 kts | 133° |
| 2026-05-08 00:56 | 35.41717 | -89.85387 | 8984 ft | 313 kts | 133° |
| 2026-05-08 00:57 | 35.40262 | -89.83406 | 8984 ft | 312 kts | 133° |
| 2026-05-08 00:57 | 35.38811 | -89.81429 | 8990 ft | 312 kts | 133° |
| 2026-05-08 00:57 | 35.37362 | -89.79455 | 8924 ft | 312 kts | 133° |
| 2026-05-08 00:57 | 35.35919 | -89.77489 | 8719 ft | 308 kts | 133° |
| 2026-05-08 00:58 | 35.34488 | -89.75544 | 8499 ft | 306 kts | 133° |
| 2026-05-08 00:58 | 35.33067 | -89.73616 | 8274 ft | 304 kts | 134° |
| 2026-05-08 00:58 | 35.31380 | -89.72119 | 8047 ft | 298 kts | 158° |
| 2026-05-08 00:58 | 35.29436 | -89.71279 | 7804 ft | 295 kts | 166° |
| 2026-05-08 00:59 | 35.27472 | -89.70599 | 7553 ft | 292 kts | 167° |
| 2026-05-08 00:59 | 35.25514 | -89.69964 | 7312 ft | 290 kts | 167° |
| 2026-05-08 00:59 | 35.23594 | -89.69361 | 7077 ft | 288 kts | 168° |
| 2026-05-08 00:59 | 35.21661 | -89.68767 | 6835 ft | 283 kts | 168° |
| 2026-05-08 01:00 | 35.19794 | -89.68201 | 6595 ft | 270 kts | 167° |
| 2026-05-08 01:00 | 35.18004 | -89.67667 | 6345 ft | 260 kts | 167° |
| 2026-05-08 01:00 | 35.16263 | -89.67270 | 6075 ft | 250 kts | 175° |
| 2026-05-08 01:00 | 35.14559 | -89.67099 | 5813 ft | 242 kts | 177° |
| 2026-05-08 01:01 | 35.12905 | -89.66970 | 5551 ft | 235 kts | 178° |
| 2026-05-08 01:01 | 35.11296 | -89.66856 | 5294 ft | 229 kts | 178° |
| 2026-05-08 01:01 | 35.09746 | -89.66822 | 5046 ft | 223 kts | 181° |
| 2026-05-08 01:01 | 35.08211 | -89.66851 | 4792 ft | 218 kts | 182° |
| 2026-05-08 01:02 | 35.06706 | -89.66891 | 4526 ft | 215 kts | 182° |
| 2026-05-08 01:02 | 35.05223 | -89.66996 | 4269 ft | 212 kts | 192° |
| 2026-05-08 01:02 | 35.03811 | -89.67486 | 4013 ft | 209 kts | 198° |
| 2026-05-08 01:02 | 35.02495 | -89.67980 | 3763 ft | 191 kts | 198° |
| 2026-05-08 01:03 | 35.01258 | -89.68445 | 3513 ft | 182 kts | 198° |
| 2026-05-08 01:03 | 35.00070 | -89.68896 | 3249 ft | 176 kts | 198° |
| 2026-05-08 01:03 | 34.98931 | -89.69332 | 2998 ft | 172 kts | 198° |
| 2026-05-08 01:03 | 34.97793 | -89.69770 | 2739 ft | 171 kts | 198° |
| 2026-05-08 01:04 | 34.96653 | -89.70157 | 2486 ft | 169 kts | 190° |
| 2026-05-08 01:04 | 34.95510 | -89.70309 | 2225 ft | 161 kts | 184° |
| 2026-05-08 01:04 | 34.94392 | -89.70380 | 2039 ft | 159 kts | 183° |
| 2026-05-08 01:04 | 34.93339 | -89.70525 | 2007 ft | 148 kts | 197° |
| 2026-05-08 01:05 | 34.92507 | -89.71158 | 1865 ft | 138 kts | 229° |
| 2026-05-08 01:05 | 34.92018 | -89.72158 | 1810 ft | 139 kts | 252° |
| 2026-05-08 01:05 | 34.91810 | -89.73309 | 1694 ft | 137 kts | 266° |
| 2026-05-08 01:05 | 34.91768 | -89.74406 | 1645 ft | 127 kts | 270° |
| 2026-05-08 01:06 | 34.91804 | -89.75463 | 1538 ft | 125 kts | 283° |
| 2026-05-08 01:06 | 34.92122 | -89.76441 | 1385 ft | 125 kts | 301° |
| 2026-05-08 01:06 | 34.92613 | -89.77315 | 1247 ft | 124 kts | 311° |
| 2026-05-08 01:06 | 34.93231 | -89.78041 | 1143 ft | 124 kts | 324° |
| 2026-05-08 01:07 | 34.94003 | -89.78472 | 1047 ft | 124 kts | 346° |
| 2026-05-08 01:07 | 34.94855 | -89.78628 | 882 ft | 124 kts | 355° |
| 2026-05-08 01:07 | 34.95693 | -89.78662 | 713 ft | 121 kts | 359° |
| 2026-05-08 01:07 | 34.96508 | -89.78667 | 535 ft | 115 kts | 359° |
| 2026-05-08 01:08 | 34.97284 | -89.78678 | 404 ft | 105 kts | 360° |
| 2026-05-08 01:08 | 34.97823 | -89.78684 | 402 ft | 60 kts | 360° |
| 2026-05-08 01:08 | 34.98099 | -89.78686 | 400 ft | 27 kts | 359° |
| 2026-05-08 01:08 | 34.98150 | -89.78742 | 401 ft | 7 kts | 270° |
| 2026-05-08 01:09 | 34.98150 | -89.78789 | 402 ft | 0 kts | 270° |
| 2026-05-08 01:10 | 34.98129 | -89.78822 | 402 ft | 9 kts | 186° |
| 2026-05-08 01:11 | 34.98048 | -89.78821 | 402 ft | 15 kts | 179° |
| 2026-05-08 01:11 | 34.97941 | -89.78821 | 401 ft | 14 kts | 179° |
| 2026-05-08 01:11 | 34.97849 | -89.78820 | 401 ft | 12 kts | 180° |
| 2026-05-08 01:11 | 34.97775 | -89.78819 | 401 ft | 9 kts | 179° |
| 2026-05-08 01:12 | 34.97718 | -89.78818 | 401 ft | 7 kts | 179° |
| 2026-05-08 01:12 | 34.97677 | -89.78818 | 400 ft | 5 kts | 179° |
| 2026-05-08 01:12 | 34.97650 | -89.78817 | 400 ft | 4 kts | 179° |
| 2026-05-08 01:12 | 34.97617 | -89.78818 | 400 ft | 6 kts | 194° |
| 2026-05-08 01:13 | 34.97605 | -89.78856 | 400 ft | 4 kts | 265° |
| 2026-05-08 01:13 | 34.97608 | -89.78908 | 400 ft | 7 kts | 295° |
| 2026-05-08 01:13 | 34.97667 | -89.78923 | 400 ft | 9 kts | 1° |
| 2026-05-08 01:13 | 34.97708 | -89.78946 | 400 ft | 7 kts | 272° |
| 2026-05-08 01:14 | 34.97714 | -89.78969 | 400 ft | 0 kts | 324° |
| 2026-05-08 01:14 | 34.97736 | -89.78970 | 400 ft | 3 kts | 358° |